Time;durP1;ratioP1;P1;durP2;ratioP2;P2;SDS_P1;SDS_P2;PMS_P1;PMS_P2;Temp;Humidity;BMP_temperature;BMP_pressure;BME280_temperature;BME280_humidity;BME280_pressure;Samples;Min_cycle;Max_cycle;Signal;HPM_P1;HPM_P2
2022/07/30 00:00:55;;;;;;;;;;;23.90;53.60;;;;;;5072884;28;19920;-61
2022/07/30 00:03:21;;;;;;;;;;;23.80;53.40;;;;;;5072352;28;19908;-61
2022/07/30 00:05:46;;;;;;;;;;;23.80;53.60;;;;;;5073087;28;20258;-61
2022/07/30 00:08:12;;;;;;;;;;;23.80;53.60;;;;;;5072678;28;20015;-61
2022/07/30 00:10:38;;;;;;;;;;;23.70;53.60;;;;;;5073322;28;20011;-61
2022/07/30 00:13:03;;;;;;;;;;;23.70;53.60;;;;;;5072695;28;19931;-60
2022/07/30 00:15:29;;;;;;;;;;;23.60;53.90;;;;;;5071917;28;19916;-60
2022/07/30 00:17:54;;;;;;;;;;;23.60;53.90;;;;;;5072625;28;19912;-61
2022/07/30 00:20:20;;;;;;;;;;;23.60;54.00;;;;;;5072653;28;19995;-61
2022/07/30 00:22:45;;;;;;;;;;;23.50;54.10;;;;;;5072467;28;19915;-61
2022/07/30 00:25:11;;;;;;;;;;;23.50;54.00;;;;;;5072399;28;19909;-61
2022/07/30 00:27:37;;;;;;;;;;;23.50;54.20;;;;;;5072238;28;20369;-60
2022/07/30 00:30:03;;;;;;;;;;;23.40;53.80;;;;;;5071898;28;19956;-61
2022/07/30 00:32:28;;;;;;;;;;;23.40;54.00;;;;;;5072828;28;19931;-61
2022/07/30 00:34:54;;;;;;;;;;;23.40;54.30;;;;;;5071941;28;20743;-61
2022/07/30 00:37:20;;;;;;;;;;;23.40;54.30;;;;;;5072230;28;19928;-60
2022/07/30 00:39:46;;;;;;;;;;;23.40;54.20;;;;;;5072282;28;19964;-60
2022/07/30 00:42:11;;;;;;;;;;;23.40;54.50;;;;;;5072437;28;19962;-60
2022/07/30 00:44:37;;;;;;;;;;;23.40;54.50;;;;;;5071460;28;19912;-61
2022/07/30 00:47:02;;;;;;;;;;;23.40;54.50;;;;;;5072100;28;19987;-59
2022/07/30 00:49:28;;;;;;;;;;;23.30;54.50;;;;;;5071908;28;19923;-60
2022/07/30 00:51:54;;;;;;;;;;;23.30;54.70;;;;;;5072124;28;20315;-60
2022/07/30 00:54:20;;;;;;;;;;;23.30;54.70;;;;;;5071923;28;20017;-60
2022/07/30 00:56:46;;;;;;;;;;;23.30;54.50;;;;;;5071787;28;19915;-60
2022/07/30 00:59:12;;;;;;;;;;;23.30;54.70;;;;;;5071566;28;19952;-60
2022/07/30 01:01:38;;;;;;;;;;;23.20;54.80;;;;;;5071570;28;20006;-60
2022/07/30 01:04:03;;;;;;;;;;;23.20;55.00;;;;;;5072100;28;19915;-60
2022/07/30 01:06:29;;;;;;;;;;;23.20;54.80;;;;;;5071331;28;19966;-59
2022/07/30 01:08:55;;;;;;;;;;;23.20;55.10;;;;;;5071376;28;19920;-59
2022/07/30 01:11:26;;;;;;;;;;;23.20;55.30;;;;;;5071460;28;19915;-61
2022/07/30 01:13:51;;;;;;;;;;;23.20;55.80;;;;;;5070935;28;19924;-60
2022/07/30 01:16:17;;;;;;;;;;;23.10;55.60;;;;;;5071492;28;19908;-61
2022/07/30 01:21:31;;;;;;;;;;;23.10;56.10;;;;;;5072108;28;19963;-59
2022/07/30 01:24:00;;;;;;;;;;;23.00;56.40;;;;;;5071242;28;19951;-60
2022/07/30 01:26:26;;;;;;;;;;;22.90;56.30;;;;;;5071864;28;19913;-60
2022/07/30 01:28:53;;;;;;;;;;;22.90;56.30;;;;;;5070507;28;20432;-60
2022/07/30 01:31:19;;;;;;;;;;;22.90;56.40;;;;;;5070992;28;19969;-61
2022/07/30 01:33:46;;;;;;;;;;;22.90;56.10;;;;;;5072308;28;19909;-60
2022/07/30 01:36:14;;;;;;;;;;;22.90;56.40;;;;;;5072466;28;19916;-60
2022/07/30 01:38:40;;;;;;;;;;;22.80;56.80;;;;;;5072068;28;19997;-60
2022/07/30 01:41:06;;;;;;;;;;;22.80;56.80;;;;;;5070981;28;19963;-59
2022/07/30 01:43:33;;;;;;;;;;;22.80;56.60;;;;;;5071129;28;20598;-60
2022/07/30 01:46:00;;;;;;;;;;;22.80;57.20;;;;;;5071286;28;19916;-61
2022/07/30 01:48:26;;;;;;;;;;;22.70;57.00;;;;;;5071353;28;19930;-60
2022/07/30 01:50:53;;;;;;;;;;;22.70;57.10;;;;;;5070958;28;20304;-61
2022/07/30 01:53:22;;;;;;;;;;;22.60;57.90;;;;;;5071261;28;19935;-62
2022/07/30 01:55:48;;;;;;;;;;;22.60;57.90;;;;;;5070729;28;20511;-60
2022/07/30 01:58:16;;;;;;;;;;;22.60;58.10;;;;;;5070846;28;20430;-60
2022/07/30 02:00:43;;;;;;;;;;;22.50;58.00;;;;;;5071090;28;19931;-60
2022/07/30 02:03:09;;;;;;;;;;;22.50;59.00;;;;;;5070713;28;19909;-60
2022/07/30 02:05:35;;;;;;;;;;;22.50;58.30;;;;;;5071251;28;19908;-60
2022/07/30 02:08:04;;;;;;;;;;;22.40;58.20;;;;;;5071220;28;19909;-60
2022/07/30 02:10:56;;;;;;;;;;;22.40;58.40;;;;;;5070588;28;19961;-61
2022/07/30 02:13:25;;;;;;;;;;;22.40;58.10;;;;;;5069904;28;19908;-60
2022/07/30 02:15:56;;;;;;;;;;;22.40;58.30;;;;;;5071193;28;19909;-59
2022/07/30 02:18:27;;;;;;;;;;;22.30;59.00;;;;;;5070596;28;19952;-61
2022/07/30 02:20:57;;;;;;;;;;;22.30;58.60;;;;;;5070659;28;19929;-60
2022/07/30 02:23:23;;;;;;;;;;;22.20;59.00;;;;;;5071239;28;19913;-62
2022/07/30 02:25:50;;;;;;;;;;;22.20;59.40;;;;;;5070393;28;19962;-61
2022/07/30 02:28:17;;;;;;;;;;;22.20;58.60;;;;;;5070659;28;20324;-60
2022/07/30 02:30:48;;;;;;;;;;;22.20;58.60;;;;;;5071131;28;20383;-60
2022/07/30 02:33:16;;;;;;;;;;;22.20;58.90;;;;;;5064273;28;19916;-60
2022/07/30 02:35:41;;;;;;;;;;;22.10;59.70;;;;;;5070750;28;20357;-60
2022/07/30 02:38:08;;;;;;;;;;;22.10;59.20;;;;;;5070977;28;20019;-61
2022/07/30 02:40:34;;;;;;;;;;;22.10;60.40;;;;;;5070047;28;19939;-59
2022/07/30 02:43:00;;;;;;;;;;;22.00;60.40;;;;;;5070727;28;20361;-61
2022/07/30 02:45:26;;;;;;;;;;;22.00;60.50;;;;;;5070912;28;19916;-61
2022/07/30 02:47:57;;;;;;;;;;;22.00;59.40;;;;;;5070601;28;20468;-60
2022/07/30 02:50:23;;;;;;;;;;;22.00;59.60;;;;;;5070742;28;19951;-60
2022/07/30 02:52:50;;;;;;;;;;;21.90;59.10;;;;;;5069749;28;20289;-62
2022/07/30 02:55:16;;;;;;;;;;;21.90;59.20;;;;;;5069901;28;19973;-61
2022/07/30 02:57:43;;;;;;;;;;;21.90;59.40;;;;;;5069614;28;20442;-61
2022/07/30 03:00:09;;;;;;;;;;;21.90;59.70;;;;;;5063630;28;20304;-61
2022/07/30 03:02:35;;;;;;;;;;;21.80;59.20;;;;;;5070332;28;19912;-60
2022/07/30 03:05:01;;;;;;;;;;;21.80;60.00;;;;;;5070565;28;19908;-60
2022/07/30 03:07:27;;;;;;;;;;;21.80;61.70;;;;;;5070332;28;19961;-61
2022/07/30 03:09:54;;;;;;;;;;;21.70;62.00;;;;;;5069822;28;19912;-60
2022/07/30 03:12:20;;;;;;;;;;;21.70;60.50;;;;;;5070526;28;19948;-61
2022/07/30 03:14:46;;;;;;;;;;;21.70;59.90;;;;;;5071312;28;19968;-61
2022/07/30 03:17:12;;;;;;;;;;;21.70;60.30;;;;;;5073840;28;19909;-60
2022/07/30 03:19:38;;;;;;;;;;;21.60;60.60;;;;;;5073567;28;19917;-61
2022/07/30 03:22:05;;;;;;;;;;;21.60;62.20;;;;;;5073775;28;19916;-60
2022/07/30 03:24:31;;;;;;;;;;;21.60;60.90;;;;;;5073412;28;19913;-60
2022/07/30 03:26:59;;;;;;;;;;;21.60;60.90;;;;;;5073761;28;19931;-61
2022/07/30 03:29:25;;;;;;;;;;;21.60;60.80;;;;;;5074417;28;19908;-60
2022/07/30 03:31:51;;;;;;;;;;;21.50;61.40;;;;;;5073804;28;19908;-60
2022/07/30 03:34:18;;;;;;;;;;;21.50;61.40;;;;;;5073075;28;19916;-61
2022/07/30 03:36:43;;;;;;;;;;;21.50;60.50;;;;;;5073567;28;20301;-61
2022/07/30 03:39:09;;;;;;;;;;;21.50;60.20;;;;;;5072732;28;19924;-61
2022/07/30 03:41:36;;;;;;;;;;;21.40;61.30;;;;;;5073639;28;20304;-61
2022/07/30 03:44:01;;;;;;;;;;;21.40;62.40;;;;;;5072845;28;19915;-60
2022/07/30 03:46:27;;;;;;;;;;;21.40;62.90;;;;;;5073738;28;19909;-61
2022/07/30 03:48:53;;;;;;;;;;;21.30;60.90;;;;;;5072135;28;20363;-61
2022/07/30 03:51:19;;;;;;;;;;;21.30;62.20;;;;;;5073373;28;19909;-60
2022/07/30 03:53:45;;;;;;;;;;;21.30;63.60;;;;;;5072584;28;19909;-62
2022/07/30 03:56:12;;;;;;;;;;;21.30;62.10;;;;;;5073011;28;19947;-60
2022/07/30 03:58:38;;;;;;;;;;;21.20;62.30;;;;;;5073690;28;20299;-62
2022/07/30 04:01:03;;;;;;;;;;;21.20;61.80;;;;;;5073207;28;20409;-61
2022/07/30 04:03:30;;;;;;;;;;;21.20;61.70;;;;;;5072991;28;19912;-61
2022/07/30 04:05:56;;;;;;;;;;;21.20;63.30;;;;;;5073223;28;20011;-61
2022/07/30 04:08:21;;;;;;;;;;;21.10;62.20;;;;;;5073064;28;20007;-61
2022/07/30 04:10:47;;;;;;;;;;;21.10;62.70;;;;;;5073005;28;19909;-61
2022/07/30 04:13:13;;;;;;;;;;;21.10;63.00;;;;;;5072807;28;19915;-60
2022/07/30 04:16:05;;;;;;;;;;;21.10;63.50;;;;;;5072991;28;20322;-60
2022/07/30 04:18:34;;;;;;;;;;;21.10;63.30;;;;;;5050288;28;20336;-61
2022/07/30 04:21:02;;;;;;;;;;;21.00;62.80;;;;;;5050037;28;20496;-61
2022/07/30 04:23:27;;;;;;;;;;;21.00;63.80;;;;;;5033257;28;19916;-59
2022/07/30 04:25:53;;;;;;;;;;;21.00;63.90;;;;;;5049901;28;19913;-61
2022/07/30 04:28:19;;;;;;;;;;;21.00;64.20;;;;;;5043707;28;20361;-60
2022/07/30 04:30:45;;;;;;;;;;;21.00;63.20;;;;;;5033232;28;19954;-61
2022/07/30 04:33:10;;;;;;;;;;;20.90;64.60;;;;;;5049857;28;19909;-60
2022/07/30 04:35:37;;;;;;;;;;;20.90;63.30;;;;;;5049109;28;20401;-61
2022/07/30 04:38:03;;;;;;;;;;;20.90;63.90;;;;;;5049763;28;19964;-60
2022/07/30 04:40:30;;;;;;;;;;;20.90;63.80;;;;;;5050118;28;20012;-61
2022/07/30 04:42:55;;;;;;;;;;;20.90;62.50;;;;;;5049985;28;19932;-61
2022/07/30 04:45:21;;;;;;;;;;;20.90;63.10;;;;;;5049440;28;20409;-60
2022/07/30 04:47:47;;;;;;;;;;;20.90;63.80;;;;;;5049873;28;19920;-61
2022/07/30 04:50:13;;;;;;;;;;;20.90;63.80;;;;;;5049526;28;19917;-61
2022/07/30 04:52:39;;;;;;;;;;;20.90;64.60;;;;;;5049651;28;20099;-61
2022/07/30 04:55:06;;;;;;;;;;;20.90;63.50;;;;;;5058789;28;19916;-61
2022/07/30 04:57:33;;;;;;;;;;;20.90;64.90;;;;;;5072277;28;20625;-61
2022/07/30 04:59:59;;;;;;;;;;;20.90;63.60;;;;;;5071568;28;19916;-61
2022/07/30 05:02:28;;;;;;;;;;;20.90;64.60;;;;;;5070524;28;19912;-61
2022/07/30 05:04:54;;;;;;;;;;;21.00;64.70;;;;;;5071784;28;20370;-61
2022/07/30 05:07:20;;;;;;;;;;;21.00;64.60;;;;;;5071796;28;19999;-61
2022/07/30 05:09:46;;;;;;;;;;;21.00;63.90;;;;;;5072072;28;20365;-61
2022/07/30 05:12:12;;;;;;;;;;;21.00;64.60;;;;;;5071501;28;19909;-60
2022/07/30 05:14:37;;;;;;;;;;;21.00;65.70;;;;;;5071821;28;19916;-61
2022/07/30 05:17:03;;;;;;;;;;;21.00;66.30;;;;;;5071848;28;19909;-60
2022/07/30 05:19:28;;;;;;;;;;;21.10;65.90;;;;;;5070927;28;20270;-60
2022/07/30 05:21:54;;;;;;;;;;;21.10;66.20;;;;;;5071051;28;19916;-61
2022/07/30 05:24:19;;;;;;;;;;;21.10;66.30;;;;;;5071316;28;20536;-61
2022/07/30 05:26:45;;;;;;;;;;;21.20;65.50;;;;;;5071279;28;19917;-61
2022/07/30 05:29:10;;;;;;;;;;;21.20;66.20;;;;;;5071326;28;20019;-61
2022/07/30 05:31:36;;;;;;;;;;;21.20;67.00;;;;;;5064827;28;20286;-60
2022/07/30 05:34:01;;;;;;;;;;;21.20;67.00;;;;;;5071000;28;19909;-61
2022/07/30 05:36:27;;;;;;;;;;;21.20;66.80;;;;;;5070830;28;20057;-60
2022/07/30 05:38:52;;;;;;;;;;;21.20;66.40;;;;;;5058167;28;20370;-61
2022/07/30 05:41:18;;;;;;;;;;;21.20;66.50;;;;;;5051228;28;20027;-61
2022/07/30 05:43:44;;;;;;;;;;;21.30;66.00;;;;;;5051161;28;19929;-61
2022/07/30 05:46:09;;;;;;;;;;;21.30;66.20;;;;;;5051008;28;19963;-61
2022/07/30 05:48:35;;;;;;;;;;;21.30;67.00;;;;;;5033010;28;19916;-61
2022/07/30 05:51:01;;;;;;;;;;;21.30;67.70;;;;;;5052416;28;19909;-61
2022/07/30 05:53:26;;;;;;;;;;;21.40;66.40;;;;;;5051196;28;19991;-61
2022/07/30 05:55:52;;;;;;;;;;;21.40;66.70;;;;;;5051100;28;20431;-61
2022/07/30 05:58:18;;;;;;;;;;;21.40;65.90;;;;;;5050676;28;20278;-60
2022/07/30 06:00:44;;;;;;;;;;;21.40;66.70;;;;;;5050750;28;20319;-61
2022/07/30 06:03:09;;;;;;;;;;;21.40;67.00;;;;;;5050676;28;20273;-60
2022/07/30 06:05:34;;;;;;;;;;;21.50;65.90;;;;;;5051004;28;19948;-61
2022/07/30 06:08:00;;;;;;;;;;;21.50;67.10;;;;;;5050853;28;19920;-60
2022/07/30 06:10:25;;;;;;;;;;;21.50;66.00;;;;;;5051325;28;19912;-60
2022/07/30 06:12:51;;;;;;;;;;;21.50;66.70;;;;;;5050548;28;19974;-60
2022/07/30 06:15:16;;;;;;;;;;;21.60;66.60;;;;;;5044285;28;19913;-59
2022/07/30 06:17:46;;;;;;;;;;;21.60;66.70;;;;;;5051185;28;20278;-61
2022/07/30 06:20:13;;;;;;;;;;;21.60;66.60;;;;;;5050867;28;19917;-60
2022/07/30 06:22:38;;;;;;;;;;;21.70;67.50;;;;;;5051098;28;19934;-61
2022/07/30 06:25:04;;;;;;;;;;;21.70;66.10;;;;;;5052477;28;20351;-60
2022/07/30 06:27:32;;;;;;;;;;;21.70;66.20;;;;;;5044132;28;19913;-60
2022/07/30 06:29:58;;;;;;;;;;;21.70;66.40;;;;;;5050890;28;19996;-60
2022/07/30 06:32:24;;;;;;;;;;;21.80;66.60;;;;;;5050590;28;20476;-61
2022/07/30 06:34:49;;;;;;;;;;;21.80;66.20;;;;;;5050337;28;20003;-60
2022/07/30 06:37:15;;;;;;;;;;;21.80;66.80;;;;;;5057061;28;19913;-59
2022/07/30 06:39:40;;;;;;;;;;;21.80;66.40;;;;;;5075907;28;19921;-60
2022/07/30 06:42:06;;;;;;;;;;;21.90;66.50;;;;;;5069919;28;19939;-59
2022/07/30 06:44:31;;;;;;;;;;;22.00;66.80;;;;;;5070331;28;19916;-64
2022/07/30 06:46:57;;;;;;;;;;;22.10;66.60;;;;;;5069152;28;20463;-63
2022/07/30 06:49:22;;;;;;;;;;;22.20;67.00;;;;;;5071892;28;19915;-63
2022/07/30 06:51:48;;;;;;;;;;;22.20;66.90;;;;;;5074168;28;20014;-64
2022/07/30 06:54:13;;;;;;;;;;;22.20;67.20;;;;;;5077805;28;19951;-63
2022/07/30 06:56:39;;;;;;;;;;;22.20;67.60;;;;;;5081744;28;19920;-64
2022/07/30 06:59:04;;;;;;;;;;;22.20;67.50;;;;;;5083127;28;19999;-62
2022/07/30 07:01:30;;;;;;;;;;;22.20;66.70;;;;;;5080057;28;19913;-64
2022/07/30 07:03:56;;;;;;;;;;;22.30;66.50;;;;;;5083656;28;19908;-64
2022/07/30 07:06:21;;;;;;;;;;;22.40;67.10;;;;;;5083724;28;19919;-62
2022/07/30 07:08:47;;;;;;;;;;;22.40;66.80;;;;;;5080881;28;19908;-63
2022/07/30 07:11:12;;;;;;;;;;;22.40;66.60;;;;;;5082624;28;19950;-65
2022/07/30 07:13:38;;;;;;;;;;;22.40;66.80;;;;;;5082022;28;20058;-64
2022/07/30 07:16:04;;;;;;;;;;;22.40;66.70;;;;;;5082714;28;20364;-62
2022/07/30 07:18:29;;;;;;;;;;;22.40;66.40;;;;;;5082620;28;19908;-64
2022/07/30 07:20:55;;;;;;;;;;;22.40;66.20;;;;;;5076162;28;20393;-64
2022/07/30 07:23:20;;;;;;;;;;;22.40;66.30;;;;;;5073802;28;19948;-63
2022/07/30 07:25:46;;;;;;;;;;;22.40;66.40;;;;;;5074207;28;19913;-65
2022/07/30 07:28:11;;;;;;;;;;;22.40;66.40;;;;;;5078175;28;19919;-64
2022/07/30 07:30:37;;;;;;;;;;;22.50;66.30;;;;;;5073015;28;19908;-64
2022/07/30 07:33:03;;;;;;;;;;;22.50;66.20;;;;;;5073425;28;19920;-65
2022/07/30 07:35:28;;;;;;;;;;;22.60;66.20;;;;;;5073674;28;19912;-59
2022/07/30 07:37:54;;;;;;;;;;;22.60;66.30;;;;;;5071993;28;20065;-59
2022/07/30 07:40:19;;;;;;;;;;;22.70;66.00;;;;;;5063818;28;19932;-58
2022/07/30 07:42:45;;;;;;;;;;;22.70;65.60;;;;;;5103755;28;20369;-59
2022/07/30 07:45:10;;;;;;;;;;;22.80;65.80;;;;;;5071730;28;19912;-58
2022/07/30 07:47:46;;;;;;;;;;;22.80;65.70;;;;;;5071096;28;19943;-59
2022/07/30 07:50:13;;;;;;;;;;;22.80;65.70;;;;;;5069272;28;19994;-59
2022/07/30 07:52:39;;;;;;;;;;;22.80;65.50;;;;;;5071020;28;20050;-59
2022/07/30 07:55:06;;;;;;;;;;;22.90;65.50;;;;;;5070586;28;19999;-59
2022/07/30 07:57:37;;;;;;;;;;;22.90;65.50;;;;;;5070668;28;20009;-59
2022/07/30 08:00:03;;;;;;;;;;;22.90;65.50;;;;;;5069435;28;20069;-60
2022/07/30 08:02:28;;;;;;;;;;;22.90;65.30;;;;;;5070732;28;20479;-58
2022/07/30 08:04:54;;;;;;;;;;;23.00;66.10;;;;;;5071452;28;19916;-59
2022/07/30 08:07:19;;;;;;;;;;;23.10;65.40;;;;;;5070198;28;19917;-59
2022/07/30 08:09:45;;;;;;;;;;;23.20;65.30;;;;;;5070773;28;19912;-58
2022/07/30 08:12:11;;;;;;;;;;;23.20;65.40;;;;;;5076439;28;20000;-58
2022/07/30 08:14:36;;;;;;;;;;;23.30;65.30;;;;;;5074128;28;19924;-59
2022/07/30 08:17:02;;;;;;;;;;;23.40;64.90;;;;;;5078213;28;19917;-59
2022/07/30 08:19:28;;;;;;;;;;;23.50;64.70;;;;;;5077047;28;20019;-59
2022/07/30 08:21:54;;;;;;;;;;;23.50;64.10;;;;;;5071383;28;19912;-59
2022/07/30 08:24:19;;;;;;;;;;;23.60;63.60;;;;;;5070554;28;19909;-59
2022/07/30 08:26:44;;;;;;;;;;;23.60;63.20;;;;;;5070120;28;20404;-59
2022/07/30 08:29:10;;;;;;;;;;;23.60;63.10;;;;;;5070273;28;19908;-59
2022/07/30 08:31:35;;;;;;;;;;;23.70;63.80;;;;;;5070687;28;20012;-58
2022/07/30 08:34:01;;;;;;;;;;;23.70;63.20;;;;;;5075266;28;19995;-58
2022/07/30 08:36:26;;;;;;;;;;;23.80;62.80;;;;;;5074140;28;19912;-59
2022/07/30 08:38:52;;;;;;;;;;;23.80;62.10;;;;;;5070073;28;19924;-58
2022/07/30 08:41:19;;;;;;;;;;;23.80;62.80;;;;;;5069906;28;20720;-59
2022/07/30 08:43:46;;;;;;;;;;;23.80;62.50;;;;;;5068801;28;20355;-59
2022/07/30 08:46:12;;;;;;;;;;;23.90;62.50;;;;;;5071902;28;20281;-59
2022/07/30 08:48:39;;;;;;;;;;;24.00;62.20;;;;;;5070250;28;19977;-58
2022/07/30 08:51:05;;;;;;;;;;;24.10;61.40;;;;;;5069925;28;19913;-60
2022/07/30 08:53:32;;;;;;;;;;;24.10;60.60;;;;;;5102874;27;20019;-58
2022/07/30 08:55:57;;;;;;;;;;;24.00;60.60;;;;;;5072290;28;19917;-59
2022/07/30 08:58:26;;;;;;;;;;;24.00;60.50;;;;;;5068186;28;19912;-59
2022/07/30 09:00:52;;;;;;;;;;;24.00;60.10;;;;;;5068120;28;19928;-59
2022/07/30 09:03:17;;;;;;;;;;;24.00;60.00;;;;;;5069573;28;19916;-58
2022/07/30 09:05:43;;;;;;;;;;;24.00;60.70;;;;;;5069806;28;19916;-59
2022/07/30 09:08:08;;;;;;;;;;;24.00;60.60;;;;;;5070552;28;19995;-58
2022/07/30 09:10:34;;;;;;;;;;;24.10;60.40;;;;;;5069417;28;19913;-55
2022/07/30 09:13:00;;;;;;;;;;;24.10;60.40;;;;;;5072153;28;20015;-56
2022/07/30 09:15:27;;;;;;;;;;;24.20;59.10;;;;;;5071551;28;19987;-57
2022/07/30 09:18:00;;;;;;;;;;;24.20;58.00;;;;;;5071493;28;19908;-58
2022/07/30 09:20:27;;;;;;;;;;;24.20;58.70;;;;;;5071381;28;19917;-58
2022/07/30 09:22:57;;;;;;;;;;;24.20;58.30;;;;;;5071360;28;19955;-58
2022/07/30 09:25:31;;;;;;;;;;;24.30;58.60;;;;;;5071111;28;19908;-57
2022/07/30 09:27:57;;;;;;;;;;;24.30;59.00;;;;;;5071262;28;19908;-58
2022/07/30 09:30:23;;;;;;;;;;;24.50;58.10;;;;;;5071498;28;19908;-57
2022/07/30 09:32:49;;;;;;;;;;;24.50;58.20;;;;;;5071292;28;19912;-57
2022/07/30 09:35:15;;;;;;;;;;;24.60;57.70;;;;;;5071457;28;19916;-58
2022/07/30 09:37:41;;;;;;;;;;;24.60;56.50;;;;;;5071485;28;19920;-58
2022/07/30 09:40:11;;;;;;;;;;;24.60;57.10;;;;;;5071337;28;19921;-56
2022/07/30 09:42:38;;;;;;;;;;;24.60;56.50;;;;;;5070261;28;20299;-58
2022/07/30 09:45:11;;;;;;;;;;;24.60;56.90;;;;;;5071165;28;20266;-57
2022/07/30 09:47:41;;;;;;;;;;;24.60;56.60;;;;;;5071055;28;19956;-58
2022/07/30 09:50:06;;;;;;;;;;;24.60;56.60;;;;;;5070934;28;20280;-57
2022/07/30 09:52:32;;;;;;;;;;;24.60;56.20;;;;;;5071024;28;20035;-57
2022/07/30 09:54:58;;;;;;;;;;;24.70;55.90;;;;;;5070497;28;20339;-58
2022/07/30 09:57:23;;;;;;;;;;;24.70;55.50;;;;;;5071571;28;19919;-57
2022/07/30 09:59:49;;;;;;;;;;;24.70;55.50;;;;;;5070819;28;19950;-57
2022/07/30 10:02:14;;;;;;;;;;;24.70;56.10;;;;;;5070638;28;20369;-57
2022/07/30 10:04:40;;;;;;;;;;;24.80;55.80;;;;;;5070727;28;19908;-56
2022/07/30 10:07:15;;;;;;;;;;;24.90;55.90;;;;;;5071514;28;19909;-57
2022/07/30 10:09:44;;;;;;;;;;;24.90;55.80;;;;;;5070292;28;19912;-56
2022/07/30 10:12:10;;;;;;;;;;;25.00;55.70;;;;;;5070591;28;19912;-58
2022/07/30 10:14:36;;;;;;;;;;;25.00;56.40;;;;;;5064922;28;19912;-57
2022/07/30 10:17:02;;;;;;;;;;;25.10;55.60;;;;;;5067077;28;20439;-57
2022/07/30 10:19:28;;;;;;;;;;;25.20;55.90;;;;;;5069807;28;19964;-57
2022/07/30 10:21:56;;;;;;;;;;;25.20;56.20;;;;;;5070513;28;19927;-58
2022/07/30 10:24:23;;;;;;;;;;;25.30;56.10;;;;;;5069329;28;19912;-58
2022/07/30 10:26:49;;;;;;;;;;;25.30;55.80;;;;;;5073297;28;19919;-60
2022/07/30 10:29:16;;;;;;;;;;;25.40;56.20;;;;;;5073212;28;19995;-55
2022/07/30 10:31:42;;;;;;;;;;;25.40;56.10;;;;;;5074208;28;20004;-59
2022/07/30 10:34:09;;;;;;;;;;;25.50;55.90;;;;;;5075129;28;19920;-59
2022/07/30 10:36:35;;;;;;;;;;;25.50;56.00;;;;;;5074156;28;20003;-59
2022/07/30 10:39:01;;;;;;;;;;;25.50;55.80;;;;;;5072797;28;20003;-58
2022/07/30 10:41:50;;;;;;;;;;;25.50;55.90;;;;;;5073216;28;19935;-59
2022/07/30 10:44:40;;;;;;;;;;;25.60;56.50;;;;;;5072857;28;19918;-59
2022/07/30 10:47:07;;;;;;;;;;;25.70;56.40;;;;;;5073249;28;20427;-58
2022/07/30 10:49:32;;;;;;;;;;;25.70;57.30;;;;;;5073255;28;19970;-58
2022/07/30 10:51:58;;;;;;;;;;;25.80;56.10;;;;;;5073066;28;19916;-57
2022/07/30 10:54:33;;;;;;;;;;;25.80;55.60;;;;;;5073298;28;20011;-58
2022/07/30 10:57:15;;;;;;;;;;;25.90;56.00;;;;;;5073176;28;19952;-58
2022/07/30 11:00:01;;;;;;;;;;;25.90;55.90;;;;;;5069910;28;20011;-59
2022/07/30 11:02:27;;;;;;;;;;;26.00;56.10;;;;;;5069215;28;20412;-58
2022/07/30 11:05:11;;;;;;;;;;;26.00;57.20;;;;;;5072569;28;19925;-59
2022/07/30 11:07:37;;;;;;;;;;;26.10;56.50;;;;;;5070968;28;20313;-60
2022/07/30 11:10:03;;;;;;;;;;;26.20;56.60;;;;;;5073595;28;19999;-59
2022/07/30 11:12:41;;;;;;;;;;;26.30;56.60;;;;;;5073427;28;19912;-58
2022/07/30 11:15:07;;;;;;;;;;;26.30;55.80;;;;;;5072826;28;20432;-59
2022/07/30 11:17:51;;;;;;;;;;;26.30;55.80;;;;;;5073128;28;20003;-59
2022/07/30 11:20:19;;;;;;;;;;;26.30;55.70;;;;;;5072580;28;19920;-58
2022/07/30 11:22:47;;;;;;;;;;;26.40;56.60;;;;;;5072248;28;19917;-58
2022/07/30 11:25:28;;;;;;;;;;;26.50;56.30;;;;;;5072503;28;19965;-58
2022/07/30 11:27:53;;;;;;;;;;;26.60;55.70;;;;;;5071223;28;19917;-59
2022/07/30 11:30:19;;;;;;;;;;;26.60;55.40;;;;;;5072560;28;20411;-59
2022/07/30 11:32:46;;;;;;;;;;;26.60;54.80;;;;;;5072859;28;19916;-57
2022/07/30 11:35:24;;;;;;;;;;;26.60;55.40;;;;;;5070949;28;19978;-58
2022/07/30 11:37:56;;;;;;;;;;;26.60;55.20;;;;;;5069188;28;19931;-58
2022/07/30 11:40:23;;;;;;;;;;;26.70;55.40;;;;;;5072486;28;19920;-57
2022/07/30 11:42:50;;;;;;;;;;;26.70;54.80;;;;;;5072453;28;19916;-58
2022/07/30 11:45:16;;;;;;;;;;;26.80;54.60;;;;;;5071252;28;20307;-58
2022/07/30 11:47:42;;;;;;;;;;;26.80;54.50;;;;;;5072092;28;19912;-58
2022/07/30 11:50:16;;;;;;;;;;;26.90;55.00;;;;;;5071796;28;20411;-57
2022/07/30 11:52:42;;;;;;;;;;;27.00;55.10;;;;;;5069811;28;19912;-58
2022/07/30 11:55:07;;;;;;;;;;;27.00;54.30;;;;;;5074790;28;19923;-58
2022/07/30 11:57:40;;;;;;;;;;;27.10;54.40;;;;;;5072565;28;19916;-58
2022/07/30 12:00:05;;;;;;;;;;;27.10;54.80;;;;;;5071637;28;20017;-57
2022/07/30 12:02:31;;;;;;;;;;;27.20;54.20;;;;;;5072204;28;20015;-58
2022/07/30 12:04:56;;;;;;;;;;;27.30;53.60;;;;;;5071301;28;19920;-59
2022/07/30 12:07:22;;;;;;;;;;;27.30;53.80;;;;;;5072269;28;19912;-58
2022/07/30 12:09:48;;;;;;;;;;;27.30;53.60;;;;;;5072524;28;19920;-57
2022/07/30 12:12:23;;;;;;;;;;;27.30;53.60;;;;;;5071423;28;19943;-58
2022/07/30 12:14:49;;;;;;;;;;;27.30;53.90;;;;;;5069345;28;19913;-58
2022/07/30 12:17:14;;;;;;;;;;;27.40;53.70;;;;;;5071637;28;20274;-57
2022/07/30 12:19:44;;;;;;;;;;;27.50;53.70;;;;;;5075883;28;19925;-56
2022/07/30 12:22:09;;;;;;;;;;;27.50;53.40;;;;;;5079109;28;20293;-57
2022/07/30 12:24:35;;;;;;;;;;;27.50;53.20;;;;;;5072759;28;19922;-58
2022/07/30 12:27:04;;;;;;;;;;;27.50;53.20;;;;;;5071520;28;19919;-58
2022/07/30 12:29:31;;;;;;;;;;;27.60;53.40;;;;;;5071012;28;19912;-57
2022/07/30 12:31:56;;;;;;;;;;;27.60;53.80;;;;;;5071143;28;19908;-58
2022/07/30 12:34:23;;;;;;;;;;;27.70;53.90;;;;;;5071208;28;19935;-58
2022/07/30 12:36:48;;;;;;;;;;;27.80;53.40;;;;;;5070816;28;20395;-57
2022/07/30 12:39:19;;;;;;;;;;;27.90;53.20;;;;;;5071195;28;19921;-58
2022/07/30 12:41:48;;;;;;;;;;;27.90;52.40;;;;;;5071532;28;19970;-58
2022/07/30 12:44:34;;;;;;;;;;;27.90;53.60;;;;;;5071411;28;19921;-58
2022/07/30 12:46:59;;;;;;;;;;;28.00;53.90;;;;;;5066504;28;19916;-58
2022/07/30 12:49:29;;;;;;;;;;;28.10;53.50;;;;;;5070587;28;20437;-58
2022/07/30 12:51:54;;;;;;;;;;;28.20;53.00;;;;;;5071055;28;19913;-58
2022/07/30 12:54:20;;;;;;;;;;;28.20;52.70;;;;;;5070827;28;19912;-57
2022/07/30 12:57:02;;;;;;;;;;;28.20;53.10;;;;;;5071127;28;19956;-57
2022/07/30 12:59:29;;;;;;;;;;;28.20;52.00;;;;;;5070228;28;19923;-58
2022/07/30 13:01:56;;;;;;;;;;;28.20;51.90;;;;;;5071011;28;19921;-58
2022/07/30 13:04:22;;;;;;;;;;;28.20;52.00;;;;;;5070521;28;20007;-58
2022/07/30 13:07:04;;;;;;;;;;;28.30;51.80;;;;;;5071301;28;19925;-57
2022/07/30 13:09:29;;;;;;;;;;;28.30;51.60;;;;;;5071151;28;19955;-58
2022/07/30 13:11:55;;;;;;;;;;;28.20;51.20;;;;;;5070172;28;20030;-58
2022/07/30 13:14:20;;;;;;;;;;;28.30;51.30;;;;;;5070653;28;20364;-58
2022/07/30 13:16:45;;;;;;;;;;;28.20;51.00;;;;;;5070304;28;19916;-58
2022/07/30 13:19:11;;;;;;;;;;;28.10;51.10;;;;;;5068857;28;19958;-58
2022/07/30 13:21:37;;;;;;;;;;;28.20;51.80;;;;;;5070658;28;19927;-58
2022/07/30 13:24:03;;;;;;;;;;;28.30;52.00;;;;;;5070368;28;19924;-58
2022/07/30 13:26:29;;;;;;;;;;;28.40;52.00;;;;;;5070550;28;19913;-58
2022/07/30 13:28:54;;;;;;;;;;;28.40;51.70;;;;;;5070678;28;20286;-58
2022/07/30 13:31:20;;;;;;;;;;;28.40;51.50;;;;;;5070130;28;20574;-57
2022/07/30 13:33:46;;;;;;;;;;;28.40;51.60;;;;;;5075917;28;19912;-57
2022/07/30 13:36:11;;;;;;;;;;;28.40;51.00;;;;;;5079670;28;19920;-58
2022/07/30 13:38:37;;;;;;;;;;;28.30;51.30;;;;;;5070638;28;20143;-58
2022/07/30 13:41:03;;;;;;;;;;;28.40;51.00;;;;;;5069708;28;20068;-58
2022/07/30 13:43:29;;;;;;;;;;;28.40;51.20;;;;;;5070521;28;19917;-58
2022/07/30 13:45:55;;;;;;;;;;;28.50;51.00;;;;;;5069670;28;19912;-58
2022/07/30 13:48:20;;;;;;;;;;;28.50;51.80;;;;;;5069823;28;19923;-58
2022/07/30 13:50:46;;;;;;;;;;;28.60;51.20;;;;;;5070555;28;19913;-57
2022/07/30 13:53:12;;;;;;;;;;;28.70;50.80;;;;;;5069496;28;19959;-59
2022/07/30 13:55:38;;;;;;;;;;;28.80;51.10;;;;;;5070432;28;19916;-58
2022/07/30 13:58:05;;;;;;;;;;;28.90;51.30;;;;;;5069823;28;19959;-58
2022/07/30 14:00:31;;;;;;;;;;;28.90;51.10;;;;;;5069689;28;20446;-58
2022/07/30 14:03:06;;;;;;;;;;;29.00;50.80;;;;;;5069204;28;19919;-58
2022/07/30 14:05:32;;;;;;;;;;;29.00;50.70;;;;;;5068803;28;19955;-58
2022/07/30 14:07:58;;;;;;;;;;;29.00;49.40;;;;;;5069561;28;20451;-58
2022/07/30 14:10:23;;;;;;;;;;;28.90;49.90;;;;;;5068786;28;19912;-58
2022/07/30 14:12:49;;;;;;;;;;;28.90;49.80;;;;;;5069420;28;19912;-58
2022/07/30 14:15:15;;;;;;;;;;;28.90;49.50;;;;;;5069631;28;20544;-58
2022/07/30 14:17:41;;;;;;;;;;;28.90;50.00;;;;;;5070249;28;20381;-58